createdAt,value
2022-11-19T00:04:44.343Z,3.37
2022-11-19T00:09:38.987Z,3.63
2022-11-19T00:14:32.320Z,5.77
2022-11-19T00:19:25.580Z,3.67
2022-11-19T00:24:19.082Z,2.90
2022-11-19T00:29:17.893Z,4.67
2022-11-19T00:34:12.509Z,11.13
2022-11-19T00:39:06.087Z,7.20
2022-11-19T00:43:59.440Z,14.30
2022-11-19T00:48:57.171Z,9.30
2022-11-19T00:53:50.547Z,5.07
2022-11-19T00:58:44.465Z,2.50
2022-11-19T01:03:38.865Z,2.03
2022-11-19T01:08:33.582Z,2.00
2022-11-19T01:13:36.072Z,1.90
2022-11-19T01:18:29.882Z,1.60
2022-11-19T01:23:23.360Z,2.17
2022-11-19T01:28:18.220Z,3.00
2022-11-19T01:33:12.026Z,1.80
2022-11-19T01:38:06.981Z,2.20
2022-11-19T01:43:00.285Z,1.80
2022-11-19T01:47:58.133Z,2.10
2022-11-19T01:52:51.934Z,1.93
2022-11-19T01:57:45.719Z,2.10
2022-11-19T02:02:39.092Z,2.10
2022-11-19T02:07:37.143Z,1.80
2022-11-19T02:12:47.031Z,1.80
2022-11-19T02:18:11.670Z,1.70
2022-11-19T02:23:53.042Z,1.53
2022-11-19T02:28:53.144Z,1.70
2022-11-19T02:33:58.912Z,1.53
2022-11-19T02:39:01.714Z,1.80
2022-11-19T02:44:17.988Z,1.30
2022-11-19T02:49:15.211Z,1.70
2022-11-19T02:54:10.180Z,1.50
2022-11-19T02:59:22.442Z,1.37
2022-11-19T03:04:32.697Z,1.30
2022-11-19T03:09:26.758Z,1.10
2022-11-19T03:14:44.865Z,1.37
2022-11-19T03:19:51.698Z,1.30
2022-11-19T03:24:52.839Z,1.57
2022-11-19T03:30:00.312Z,1.30
2022-11-19T03:35:02.876Z,1.30
2022-11-19T03:40:01.919Z,1.20
2022-11-19T03:45:01.357Z,1.43
2022-11-19T03:50:05.959Z,1.40
2022-11-19T03:54:59.273Z,1.37
2022-11-19T03:59:52.667Z,1.23
2022-11-19T04:04:46.004Z,1.47
2022-11-19T04:09:42.824Z,1.27
2022-11-19T04:14:36.139Z,1.40
2022-11-19T04:19:29.843Z,1.23
2022-11-19T04:24:23.382Z,1.20
2022-11-19T04:29:18.321Z,1.23
2022-11-19T04:34:11.822Z,1.20
2022-11-19T04:39:05.691Z,1.20
2022-11-19T04:43:58.980Z,1.40
2022-11-19T04:48:53.774Z,1.10
2022-11-19T04:53:47.168Z,1.27
2022-11-19T04:58:40.511Z,1.30
2022-11-19T05:03:34.275Z,1.30
2022-11-19T05:08:28.972Z,1.00
2022-11-19T05:13:22.337Z,1.37
2022-11-19T05:18:15.744Z,1.57
2022-11-19T05:23:09.155Z,1.50
2022-11-19T05:28:03.872Z,1.60
2022-11-19T05:32:57.198Z,1.27
2022-11-19T05:37:51.417Z,1.30
2022-11-19T05:42:44.861Z,1.30
2022-11-19T05:47:42.307Z,1.30
2022-11-19T05:52:38.562Z,1.03
2022-11-19T05:57:31.880Z,1.00
2022-11-19T06:02:25.179Z,1.00
2022-11-19T06:07:19.858Z,1.03
2022-11-19T06:12:13.196Z,1.67
2022-11-19T06:17:06.480Z,1.30
2022-11-19T06:21:59.915Z,1.33
2022-11-19T06:26:54.557Z,1.30
2022-11-19T06:31:48.253Z,1.80
2022-11-19T06:36:45.132Z,1.70
2022-11-19T06:41:41.064Z,1.43
2022-11-19T06:46:35.800Z,1.30
2022-11-19T06:51:29.060Z,1.37
2022-11-19T06:56:22.340Z,1.53
2022-11-19T07:01:16.288Z,1.50
2022-11-19T07:06:11.060Z,1.80
2022-11-19T07:11:25.528Z,2.27
2022-11-19T07:16:19.394Z,6.10
2022-11-19T07:21:14.015Z,5.30
2022-11-19T07:26:07.578Z,5.73
2022-11-19T07:31:00.837Z,5.20
2022-11-19T07:35:54.144Z,3.47
2022-11-19T07:40:55.923Z,2.70
2022-11-19T07:45:49.511Z,2.60
2022-11-19T07:50:42.999Z,3.00
2022-11-19T07:55:36.359Z,2.63
2022-11-19T08:00:31.256Z,3.00
2022-11-19T08:05:24.651Z,2.87
2022-11-19T08:10:18.140Z,3.57
2022-11-19T08:15:12.448Z,3.50
2022-11-19T08:20:09.114Z,3.00
2022-11-19T08:25:04.745Z,2.70
2022-11-19T08:29:58.077Z,2.60
2022-11-19T08:34:51.423Z,2.47
2022-11-19T08:39:46.156Z,2.67
2022-11-19T08:44:39.791Z,2.27
2022-11-19T08:49:34.321Z,2.20
2022-11-19T08:54:27.711Z,2.30
2022-11-19T08:59:22.670Z,2.80
2022-11-19T09:04:16.153Z,4.73
2022-11-19T09:09:09.966Z,2.23
2022-11-19T09:14:03.403Z,2.30
2022-11-19T09:18:58.232Z,2.23
2022-11-19T09:23:51.570Z,2.93
2022-11-19T09:28:45.425Z,2.43
2022-11-19T09:33:43.168Z,1.60
2022-11-19T09:38:39.328Z,1.40
2022-11-19T09:43:53.251Z,2.40
2022-11-19T09:48:46.850Z,1.70
2022-11-19T09:53:48.051Z,1.80
2022-11-19T09:58:45.319Z,2.00
2022-11-19T10:03:47.955Z,2.07
2022-11-19T10:09:02.970Z,1.90
2022-11-19T10:14:16.333Z,2.50
2022-11-19T10:19:31.256Z,2.00
2022-11-19T10:24:40.109Z,1.73
2022-11-19T10:29:40.316Z,1.67
2022-11-19T10:34:38.761Z,1.30
2022-11-19T10:39:42.839Z,1.20
2022-11-19T10:44:42.240Z,1.33
2022-11-19T10:49:41.999Z,1.13
2022-11-19T10:54:39.585Z,1.00
2022-11-19T10:59:34.548Z,1.20
2022-11-19T11:04:30.875Z,1.10
2022-11-19T11:09:33.749Z,1.10
2022-11-19T11:14:46.076Z,0.90
2022-11-19T11:19:39.444Z,1.23
2022-11-19T11:24:36.005Z,0.97
2022-11-19T11:29:30.649Z,1.10
2022-11-19T11:34:33.620Z,1.10
2022-11-19T11:39:31.566Z,1.63
2022-11-19T11:44:28.811Z,1.07
2022-11-19T11:49:32.154Z,1.17
2022-11-19T11:54:25.440Z,1.50
2022-11-19T11:59:29.122Z,1.30
2022-11-19T12:04:23.272Z,1.70
2022-11-19T12:09:32.297Z,0.87
2022-11-19T12:14:31.105Z,1.13
2022-11-19T12:20:25.297Z,1.13
2022-11-19T12:25:34.093Z,1.37
2022-11-19T12:30:38.232Z,1.17
2022-11-19T12:35:49.645Z,1.13
2022-11-19T12:40:54.708Z,0.97
2022-11-19T12:45:59.566Z,0.87
2022-11-19T12:51:04.424Z,0.90
2022-11-19T12:56:18.647Z,0.70
2022-11-19T13:01:20.939Z,1.00
2022-11-19T13:06:23.061Z,1.10
2022-11-19T13:11:23.747Z,1.20
2022-11-19T13:16:22.277Z,1.07
2022-11-19T13:21:28.698Z,1.20
2022-11-19T13:26:30.831Z,1.00
2022-11-19T13:31:34.893Z,1.23
2022-11-19T13:36:37.180Z,1.77
2022-11-19T13:41:57.776Z,1.40
2022-11-19T13:46:58.261Z,1.30
2022-11-19T13:51:56.674Z,1.10
2022-11-19T13:56:55.994Z,1.10
2022-11-19T14:02:41.089Z,1.10
2022-11-19T14:08:03.741Z,0.93
2022-11-19T14:13:29.268Z,1.20
2022-11-19T14:18:53.108Z,1.13
2022-11-19T14:24:07.921Z,1.27
2022-11-19T14:29:02.535Z,0.90
2022-11-19T14:34:04.190Z,0.77
2022-11-19T14:39:02.902Z,1.00
2022-11-19T14:44:15.376Z,1.07
2022-11-19T14:49:32.916Z,0.87
2022-11-19T14:54:40.864Z,1.03
2022-11-19T14:59:39.364Z,1.10
2022-11-19T15:04:41.280Z,1.10
2022-11-19T15:10:25.315Z,1.20
2022-11-19T15:15:38.540Z,0.80
2022-11-19T15:20:58.278Z,0.80
2022-11-19T15:26:07.485Z,0.90
2022-11-19T15:31:42.490Z,0.80
2022-11-19T15:36:44.322Z,0.50
2022-11-19T15:42:00.467Z,0.70
2022-11-19T15:47:01.737Z,0.60
2022-11-19T15:52:07.434Z,0.53
2022-11-19T15:57:07.402Z,0.70
2022-11-19T16:02:19.110Z,0.60
2022-11-19T16:08:21.270Z,0.60
2022-11-19T16:13:43.722Z,0.70
2022-11-19T16:36:51.583Z,0.80
2022-11-19T16:42:03.400Z,0.80
2022-11-19T16:46:57.102Z,1.13
2022-11-19T16:51:55.790Z,0.97
2022-11-19T16:56:49.261Z,0.87
2022-11-19T17:01:50.174Z,0.83
2022-11-19T17:06:44.465Z,0.90
2022-11-19T17:12:09.361Z,1.67
2022-11-19T17:17:04.080Z,1.10
2022-11-19T17:22:00.939Z,1.03
2022-11-19T17:26:55.665Z,1.10
2022-11-19T17:31:55.841Z,1.00
2022-11-19T17:36:49.276Z,1.10
2022-11-19T17:42:02.733Z,1.70
2022-11-19T17:46:57.485Z,1.23
2022-11-19T17:51:50.872Z,1.07
2022-11-19T17:56:44.439Z,1.23
2022-11-19T18:01:37.802Z,1.00
2022-11-19T18:06:33.690Z,1.20
2022-11-19T18:11:27.733Z,1.23
2022-11-19T18:16:23.353Z,1.20
2022-11-19T18:21:20.138Z,1.60
2022-11-19T18:26:17.186Z,1.40
2022-11-19T18:31:16.360Z,1.40
2022-11-19T18:36:11.322Z,1.63
2022-11-19T18:41:04.743Z,1.40
2022-11-19T18:45:59.433Z,1.70
2022-11-19T18:50:55.536Z,1.50
2022-11-19T18:55:49.303Z,1.67
2022-11-19T19:00:43.056Z,1.53
2022-11-19T19:05:38.027Z,1.60
2022-11-19T19:10:31.313Z,1.30
2022-11-19T19:15:24.612Z,1.37
2022-11-19T19:20:18.380Z,1.50
2022-11-19T19:25:12.981Z,1.70
2022-11-19T19:30:09.418Z,1.13
2022-11-19T19:35:02.849Z,1.20
2022-11-19T19:39:56.231Z,1.33
2022-11-19T19:44:50.963Z,1.77
2022-11-19T19:49:44.291Z,1.40
2022-11-19T19:54:55.224Z,1.50
2022-11-19T20:00:00.330Z,1.73
2022-11-19T20:06:20.146Z,1.80
2022-11-19T20:30:14.343Z,2.17
2022-11-19T20:35:08.917Z,2.60
2022-11-19T20:40:03.618Z,2.33
2022-11-19T20:44:56.987Z,2.43
2022-11-19T20:49:50.290Z,2.63
2022-11-19T20:54:43.810Z,2.50
2022-11-19T20:59:38.659Z,2.27
2022-11-19T21:04:36.462Z,2.30
2022-11-19T21:09:29.924Z,2.50
2022-11-19T21:14:23.520Z,2.40
2022-11-19T21:19:18.341Z,1.90
2022-11-19T21:24:12.169Z,1.70
2022-11-19T21:29:05.674Z,1.50
2022-11-19T21:33:59.416Z,2.17
2022-11-19T21:38:54.151Z,2.13
2022-11-19T21:43:47.475Z,2.13
2022-11-19T21:48:40.888Z,2.50
2022-11-19T21:53:34.361Z,2.30
2022-11-19T21:58:29.023Z,2.20
2022-11-19T22:03:22.370Z,2.37
2022-11-19T22:08:15.700Z,2.07
2022-11-19T22:13:08.977Z,2.10
2022-11-19T22:18:03.674Z,2.30
2022-11-19T22:22:58.219Z,1.80
2022-11-19T22:27:51.527Z,2.40
2022-11-19T22:32:44.856Z,2.60
2022-11-19T22:37:39.555Z,2.93
2022-11-19T22:42:32.859Z,2.30
2022-11-19T22:47:26.213Z,2.23
2022-11-19T22:52:19.523Z,2.00
2022-11-19T22:57:14.283Z,2.50
2022-11-19T23:02:07.690Z,2.30
2022-11-19T23:07:01.130Z,2.60
2022-11-19T23:12:11.845Z,2.27
2022-11-19T23:17:06.525Z,2.60
2022-11-19T23:21:59.770Z,3.13
2022-11-19T23:26:54.987Z,3.03
2022-11-19T23:31:48.255Z,3.03
2022-11-19T23:36:43.424Z,3.70
2022-11-19T23:41:37.174Z,4.37
2022-11-19T23:46:32.866Z,4.37
2022-11-19T23:51:29.378Z,4.53
2022-11-19T23:56:26.107Z,5.80
